sensor_id;sensor_type;location;lat;lon;timestamp;temperature;humidity
21830;DHT22;11077;50.264;6.798;2023-07-22T00:01:24;9.70;99.90
21830;DHT22;11077;50.264;6.798;2023-07-22T00:03:51;9.70;99.90
21830;DHT22;11077;50.264;6.798;2023-07-22T00:06:19;9.60;99.90
21830;DHT22;11077;50.264;6.798;2023-07-22T00:08:46;9.60;99.90
21830;DHT22;11077;50.264;6.798;2023-07-22T00:11:13;9.50;99.90
21830;DHT22;11077;50.264;6.798;2023-07-22T00:13:40;9.50;99.90
21830;DHT22;11077;50.264;6.798;2023-07-22T00:16:11;9.50;99.90
21830;DHT22;11077;50.264;6.798;2023-07-22T00:18:38;9.50;99.90
21830;DHT22;11077;50.264;6.798;2023-07-22T00:21:07;9.40;99.90
21830;DHT22;11077;50.264;6.798;2023-07-22T00:23:34;9.40;99.90
21830;DHT22;11077;50.264;6.798;2023-07-22T00:26:02;9.40;99.90
21830;DHT22;11077;50.264;6.798;2023-07-22T00:28:29;9.30;99.90
21830;DHT22;11077;50.264;6.798;2023-07-22T00:30:56;9.40;99.90
21830;DHT22;11077;50.264;6.798;2023-07-22T00:33:28;9.30;99.90
21830;DHT22;11077;50.264;6.798;2023-07-22T00:35:56;9.30;99.90
21830;DHT22;11077;50.264;6.798;2023-07-22T00:38:23;9.20;99.90
21830;DHT22;11077;50.264;6.798;2023-07-22T00:40:51;9.10;99.90
21830;DHT22;11077;50.264;6.798;2023-07-22T00:43:18;9.10;99.90
21830;DHT22;11077;50.264;6.798;2023-07-22T00:45:45;9.20;99.90
21830;DHT22;11077;50.264;6.798;2023-07-22T00:48:13;9.10;99.90
21830;DHT22;11077;50.264;6.798;2023-07-22T00:50:43;9.10;99.90
21830;DHT22;11077;50.264;6.798;2023-07-22T00:53:11;9.10;99.90
21830;DHT22;11077;50.264;6.798;2023-07-22T00:55:39;9.00;99.90
21830;DHT22;11077;50.264;6.798;2023-07-22T00:58:07;9.00;99.90
21830;DHT22;11077;50.264;6.798;2023-07-22T01:00:34;9.00;99.90
21830;DHT22;11077;50.264;6.798;2023-07-22T01:03:02;9.00;99.90
21830;DHT22;11077;50.264;6.798;2023-07-22T01:05:30;8.90;99.90
21830;DHT22;11077;50.264;6.798;2023-07-22T01:07:59;8.90;99.90
21830;DHT22;11077;50.264;6.798;2023-07-22T01:10:26;8.90;99.90
21830;DHT22;11077;50.264;6.798;2023-07-22T01:12:55;8.90;99.90
21830;DHT22;11077;50.264;6.798;2023-07-22T01:15:24;8.90;99.90
21830;DHT22;11077;50.264;6.798;2023-07-22T01:17:51;8.90;99.90
21830;DHT22;11077;50.264;6.798;2023-07-22T01:20:23;8.80;99.90
21830;DHT22;11077;50.264;6.798;2023-07-22T01:22:52;8.80;99.90
21830;DHT22;11077;50.264;6.798;2023-07-22T01:25:22;8.70;99.90
21830;DHT22;11077;50.264;6.798;2023-07-22T01:27:51;8.70;99.90
21830;DHT22;11077;50.264;6.798;2023-07-22T01:30:18;8.70;99.90
21830;DHT22;11077;50.264;6.798;2023-07-22T01:32:45;8.70;99.90
21830;DHT22;11077;50.264;6.798;2023-07-22T01:35:12;8.60;99.90
21830;DHT22;11077;50.264;6.798;2023-07-22T01:37:40;8.60;99.90
21830;DHT22;11077;50.264;6.798;2023-07-22T01:40:11;8.60;99.90
21830;DHT22;11077;50.264;6.798;2023-07-22T01:42:38;8.60;99.90
21830;DHT22;11077;50.264;6.798;2023-07-22T01:45:07;8.60;99.90
21830;DHT22;11077;50.264;6.798;2023-07-22T01:47:34;8.50;99.90
21830;DHT22;11077;50.264;6.798;2023-07-22T01:50:02;8.50;99.90
21830;DHT22;11077;50.264;6.798;2023-07-22T01:52:30;8.40;99.90
21830;DHT22;11077;50.264;6.798;2023-07-22T01:54:57;8.40;99.90
21830;DHT22;11077;50.264;6.798;2023-07-22T01:57:26;8.40;99.90
21830;DHT22;11077;50.264;6.798;2023-07-22T01:59:53;8.40;99.90
21830;DHT22;11077;50.264;6.798;2023-07-22T02:02:20;8.40;99.90
21830;DHT22;11077;50.264;6.798;2023-07-22T02:04:48;8.30;99.90
21830;DHT22;11077;50.264;6.798;2023-07-22T02:07:15;8.30;99.90
21830;DHT22;11077;50.264;6.798;2023-07-22T02:09:43;8.30;99.90
21830;DHT22;11077;50.264;6.798;2023-07-22T02:12:11;8.30;99.90
21830;DHT22;11077;50.264;6.798;2023-07-22T02:14:42;8.20;99.90
21830;DHT22;11077;50.264;6.798;2023-07-22T02:17:10;8.20;99.90
21830;DHT22;11077;50.264;6.798;2023-07-22T02:19:37;8.20;99.90
21830;DHT22;11077;50.264;6.798;2023-07-22T02:22:05;8.10;99.90
21830;DHT22;11077;50.264;6.798;2023-07-22T02:24:32;8.10;99.90
21830;DHT22;11077;50.264;6.798;2023-07-22T02:27:00;8.20;99.90
21830;DHT22;11077;50.264;6.798;2023-07-22T02:29:27;8.10;99.90
21830;DHT22;11077;50.264;6.798;2023-07-22T02:31:58;8.10;99.90
21830;DHT22;11077;50.264;6.798;2023-07-22T02:34:26;8.10;99.90
21830;DHT22;11077;50.264;6.798;2023-07-22T02:36:54;8.10;99.90
21830;DHT22;11077;50.264;6.798;2023-07-22T02:39:21;8.10;99.90
21830;DHT22;11077;50.264;6.798;2023-07-22T02:41:49;8.10;99.90
21830;DHT22;11077;50.264;6.798;2023-07-22T02:44:16;8.10;99.90
21830;DHT22;11077;50.264;6.798;2023-07-22T02:46:43;8.10;99.90
21830;DHT22;11077;50.264;6.798;2023-07-22T02:49:13;8.00;99.90
21830;DHT22;11077;50.264;6.798;2023-07-22T02:51:40;8.00;99.90
21830;DHT22;11077;50.264;6.798;2023-07-22T02:54:07;8.00;99.90
21830;DHT22;11077;50.264;6.798;2023-07-22T02:56:35;7.90;99.90
21830;DHT22;11077;50.264;6.798;2023-07-22T02:59:02;8.00;99.90
21830;DHT22;11077;50.264;6.798;2023-07-22T03:01:32;7.90;99.90
21830;DHT22;11077;50.264;6.798;2023-07-22T03:03:59;7.90;99.90
21830;DHT22;11077;50.264;6.798;2023-07-22T03:06:28;7.90;99.90
21830;DHT22;11077;50.264;6.798;2023-07-22T03:08:56;7.90;99.90
21830;DHT22;11077;50.264;6.798;2023-07-22T03:11:23;7.90;99.90
21830;DHT22;11077;50.264;6.798;2023-07-22T03:13:52;7.90;99.90
21830;DHT22;11077;50.264;6.798;2023-07-22T03:16:20;7.90;99.90
21830;DHT22;11077;50.264;6.798;2023-07-22T03:18:48;7.90;99.90
21830;DHT22;11077;50.264;6.798;2023-07-22T03:21:16;7.90;99.90
21830;DHT22;11077;50.264;6.798;2023-07-22T03:23:45;7.90;99.90
21830;DHT22;11077;50.264;6.798;2023-07-22T03:26:13;7.80;99.90
21830;DHT22;11077;50.264;6.798;2023-07-22T03:28:40;7.80;99.90
21830;DHT22;11077;50.264;6.798;2023-07-22T03:31:07;7.80;99.90
21830;DHT22;11077;50.264;6.798;2023-07-22T03:33:35;7.70;99.90
21830;DHT22;11077;50.264;6.798;2023-07-22T03:36:03;7.70;99.90
21830;DHT22;11077;50.264;6.798;2023-07-22T03:38:31;7.70;99.90
21830;DHT22;11077;50.264;6.798;2023-07-22T03:41:00;7.70;99.90
21830;DHT22;11077;50.264;6.798;2023-07-22T03:43:29;7.70;99.90
21830;DHT22;11077;50.264;6.798;2023-07-22T03:45:56;7.70;99.90
21830;DHT22;11077;50.264;6.798;2023-07-22T03:48:24;7.70;99.90
21830;DHT22;11077;50.264;6.798;2023-07-22T03:50:51;7.70;99.90
21830;DHT22;11077;50.264;6.798;2023-07-22T03:53:22;7.70;99.90
21830;DHT22;11077;50.264;6.798;2023-07-22T03:55:56;7.60;99.90
21830;DHT22;11077;50.264;6.798;2023-07-22T03:58:30;7.60;99.90
21830;DHT22;11077;50.264;6.798;2023-07-22T04:01:00;7.60;99.90
21830;DHT22;11077;50.264;6.798;2023-07-22T04:03:29;7.60;99.90
21830;DHT22;11077;50.264;6.798;2023-07-22T04:05:57;7.60;99.90
21830;DHT22;11077;50.264;6.798;2023-07-22T04:08:28;7.60;99.90
21830;DHT22;11077;50.264;6.798;2023-07-22T04:10:57;7.60;99.90
21830;DHT22;11077;50.264;6.798;2023-07-22T04:13:29;7.60;99.90
21830;DHT22;11077;50.264;6.798;2023-07-22T04:15:57;7.60;99.90
21830;DHT22;11077;50.264;6.798;2023-07-22T04:18:28;7.60;99.90
21830;DHT22;11077;50.264;6.798;2023-07-22T04:21:01;7.60;99.90
21830;DHT22;11077;50.264;6.798;2023-07-22T04:23:32;7.60;99.90
21830;DHT22;11077;50.264;6.798;2023-07-22T04:26:02;7.50;99.90
21830;DHT22;11077;50.264;6.798;2023-07-22T04:28:43;7.50;99.90
21830;DHT22;11077;50.264;6.798;2023-07-22T04:31:10;7.60;99.90
21830;DHT22;11077;50.264;6.798;2023-07-22T04:33:40;7.50;99.90
21830;DHT22;11077;50.264;6.798;2023-07-22T04:36:13;7.50;99.90
21830;DHT22;11077;50.264;6.798;2023-07-22T04:38:47;7.60;99.90
21830;DHT22;11077;50.264;6.798;2023-07-22T04:41:15;7.60;99.90
21830;DHT22;11077;50.264;6.798;2023-07-22T04:44:01;7.60;99.90
21830;DHT22;11077;50.264;6.798;2023-07-22T04:46:31;7.60;99.90
21830;DHT22;11077;50.264;6.798;2023-07-22T04:49:00;7.70;99.90
21830;DHT22;11077;50.264;6.798;2023-07-22T04:51:28;7.70;99.90
21830;DHT22;11077;50.264;6.798;2023-07-22T04:53:58;7.70;99.90
21830;DHT22;11077;50.264;6.798;2023-07-22T04:56:26;7.70;99.90
21830;DHT22;11077;50.264;6.798;2023-07-22T04:58:56;7.70;99.90
21830;DHT22;11077;50.264;6.798;2023-07-22T05:01:25;7.80;99.90
21830;DHT22;11077;50.264;6.798;2023-07-22T05:03:53;7.80;99.90
21830;DHT22;11077;50.264;6.798;2023-07-22T05:06:21;7.80;99.90
21830;DHT22;11077;50.264;6.798;2023-07-22T05:08:57;7.90;99.90
21830;DHT22;11077;50.264;6.798;2023-07-22T05:11:29;8.00;99.90
21830;DHT22;11077;50.264;6.798;2023-07-22T05:14:03;8.00;99.90
21830;DHT22;11077;50.264;6.798;2023-07-22T05:16:33;8.10;99.90
21830;DHT22;11077;50.264;6.798;2023-07-22T05:19:02;8.20;99.90
21830;DHT22;11077;50.264;6.798;2023-07-22T05:21:30;8.30;99.90
21830;DHT22;11077;50.264;6.798;2023-07-22T05:23:58;8.30;99.90
21830;DHT22;11077;50.264;6.798;2023-07-22T05:26:26;8.40;99.90
21830;DHT22;11077;50.264;6.798;2023-07-22T05:28:57;8.60;99.90
21830;DHT22;11077;50.264;6.798;2023-07-22T05:31:27;8.60;99.90
21830;DHT22;11077;50.264;6.798;2023-07-22T05:33:55;8.80;99.90
21830;DHT22;11077;50.264;6.798;2023-07-22T05:36:35;8.90;99.90
21830;DHT22;11077;50.264;6.798;2023-07-22T05:39:03;8.90;99.90
21830;DHT22;11077;50.264;6.798;2023-07-22T05:41:33;9.10;99.90
21830;DHT22;11077;50.264;6.798;2023-07-22T05:44:01;9.10;99.90
21830;DHT22;11077;50.264;6.798;2023-07-22T05:46:32;9.30;99.90
21830;DHT22;11077;50.264;6.798;2023-07-22T05:49:03;9.40;99.90
21830;DHT22;11077;50.264;6.798;2023-07-22T05:51:38;9.50;99.90
21830;DHT22;11077;50.264;6.798;2023-07-22T05:54:06;9.70;99.90
21830;DHT22;11077;50.264;6.798;2023-07-22T05:56:36;9.80;99.90
21830;DHT22;11077;50.264;6.798;2023-07-22T05:59:05;10.00;99.90
21830;DHT22;11077;50.264;6.798;2023-07-22T06:01:34;10.10;99.90
21830;DHT22;11077;50.264;6.798;2023-07-22T06:04:02;10.20;99.90
21830;DHT22;11077;50.264;6.798;2023-07-22T06:06:30;10.30;99.90
21830;DHT22;11077;50.264;6.798;2023-07-22T06:09:00;10.40;99.90
21830;DHT22;11077;50.264;6.798;2023-07-22T06:11:29;10.60;99.90
21830;DHT22;11077;50.264;6.798;2023-07-22T06:13:56;10.70;99.90
21830;DHT22;11077;50.264;6.798;2023-07-22T06:16:27;10.80;99.90
21830;DHT22;11077;50.264;6.798;2023-07-22T06:18:59;10.90;99.90
21830;DHT22;11077;50.264;6.798;2023-07-22T06:21:27;11.10;99.90
21830;DHT22;11077;50.264;6.798;2023-07-22T06:23:56;11.30;99.90
21830;DHT22;11077;50.264;6.798;2023-07-22T06:26:25;11.40;99.90
21830;DHT22;11077;50.264;6.798;2023-07-22T06:28:53;11.50;99.90
21830;DHT22;11077;50.264;6.798;2023-07-22T06:31:21;11.70;99.90
21830;DHT22;11077;50.264;6.798;2023-07-22T06:33:49;11.80;99.90
21830;DHT22;11077;50.264;6.798;2023-07-22T06:36:18;12.00;99.90
21830;DHT22;11077;50.264;6.798;2023-07-22T06:38:46;12.20;99.90
21830;DHT22;11077;50.264;6.798;2023-07-22T06:41:16;12.30;99.90
21830;DHT22;11077;50.264;6.798;2023-07-22T06:43:47;12.50;99.90
21830;DHT22;11077;50.264;6.798;2023-07-22T06:46:14;12.60;99.90
21830;DHT22;11077;50.264;6.798;2023-07-22T06:48:42;12.80;99.90
21830;DHT22;11077;50.264;6.798;2023-07-22T06:51:10;12.90;99.90
21830;DHT22;11077;50.264;6.798;2023-07-22T06:53:40;13.10;99.90
21830;DHT22;11077;50.264;6.798;2023-07-22T06:56:10;13.20;99.90
21830;DHT22;11077;50.264;6.798;2023-07-22T06:58:38;13.30;99.90
21830;DHT22;11077;50.264;6.798;2023-07-22T07:01:07;13.50;99.90
21830;DHT22;11077;50.264;6.798;2023-07-22T07:03:35;13.50;99.90
21830;DHT22;11077;50.264;6.798;2023-07-22T07:06:05;13.60;99.90
21830;DHT22;11077;50.264;6.798;2023-07-22T07:08:34;13.70;99.90
21830;DHT22;11077;50.264;6.798;2023-07-22T07:11:04;13.90;99.90
21830;DHT22;11077;50.264;6.798;2023-07-22T07:13:37;14.10;99.90
21830;DHT22;11077;50.264;6.798;2023-07-22T07:16:20;14.20;99.90
21830;DHT22;11077;50.264;6.798;2023-07-22T07:18:50;14.40;99.90
21830;DHT22;11077;50.264;6.798;2023-07-22T07:21:18;14.40;99.90
21830;DHT22;11077;50.264;6.798;2023-07-22T07:23:45;14.40;99.90
21830;DHT22;11077;50.264;6.798;2023-07-22T07:26:15;14.50;99.90
21830;DHT22;11077;50.264;6.798;2023-07-22T07:28:45;14.60;99.90
21830;DHT22;11077;50.264;6.798;2023-07-22T07:31:17;14.80;99.90
21830;DHT22;11077;50.264;6.798;2023-07-22T07:33:48;15.00;99.90
21830;DHT22;11077;50.264;6.798;2023-07-22T07:36:17;15.00;99.90
21830;DHT22;11077;50.264;6.798;2023-07-22T07:38:44;15.00;99.90
21830;DHT22;11077;50.264;6.798;2023-07-22T07:41:14;15.00;99.90
21830;DHT22;11077;50.264;6.798;2023-07-22T07:43:42;15.00;99.90
21830;DHT22;11077;50.264;6.798;2023-07-22T07:46:16;15.10;99.90
21830;DHT22;11077;50.264;6.798;2023-07-22T07:48:50;15.20;99.90
21830;DHT22;11077;50.264;6.798;2023-07-22T07:51:19;15.40;99.90
21830;DHT22;11077;50.264;6.798;2023-07-22T07:53:50;15.50;99.90
21830;DHT22;11077;50.264;6.798;2023-07-22T07:56:22;15.50;99.90
21830;DHT22;11077;50.264;6.798;2023-07-22T07:58:51;15.60;99.90
21830;DHT22;11077;50.264;6.798;2023-07-22T08:01:19;15.70;99.90
21830;DHT22;11077;50.264;6.798;2023-07-22T08:03:47;15.80;99.90
21830;DHT22;11077;50.264;6.798;2023-07-22T08:06:15;15.90;99.90
21830;DHT22;11077;50.264;6.798;2023-07-22T08:08:48;15.90;99.90
21830;DHT22;11077;50.264;6.798;2023-07-22T08:11:22;15.80;99.90
21830;DHT22;11077;50.264;6.798;2023-07-22T08:13:50;16.10;99.90
21830;DHT22;11077;50.264;6.798;2023-07-22T08:16:24;16.20;99.90
21830;DHT22;11077;50.264;6.798;2023-07-22T08:19:01;16.30;99.90
21830;DHT22;11077;50.264;6.798;2023-07-22T08:21:30;16.50;99.90
21830;DHT22;11077;50.264;6.798;2023-07-22T08:23:57;16.60;99.90
21830;DHT22;11077;50.264;6.798;2023-07-22T08:26:27;16.70;99.90
21830;DHT22;11077;50.264;6.798;2023-07-22T08:28:54;16.90;99.90
21830;DHT22;11077;50.264;6.798;2023-07-22T08:31:26;16.90;99.90
21830;DHT22;11077;50.264;6.798;2023-07-22T08:33:55;17.00;99.90
21830;DHT22;11077;50.264;6.798;2023-07-22T08:36:27;17.00;99.90
21830;DHT22;11077;50.264;6.798;2023-07-22T08:38:55;17.00;99.90
21830;DHT22;11077;50.264;6.798;2023-07-22T08:41:36;17.00;99.90
21830;DHT22;11077;50.264;6.798;2023-07-22T08:44:05;17.20;99.90
21830;DHT22;11077;50.264;6.798;2023-07-22T08:46:37;17.30;99.90
21830;DHT22;11077;50.264;6.798;2023-07-22T08:49:07;17.50;99.90
21830;DHT22;11077;50.264;6.798;2023-07-22T08:51:40;17.60;99.90
21830;DHT22;11077;50.264;6.798;2023-07-22T08:54:08;17.70;99.90
21830;DHT22;11077;50.264;6.798;2023-07-22T08:56:38;17.90;99.90
21830;DHT22;11077;50.264;6.798;2023-07-22T08:59:05;18.00;99.90
21830;DHT22;11077;50.264;6.798;2023-07-22T09:01:34;18.10;99.90
21830;DHT22;11077;50.264;6.798;2023-07-22T09:04:01;17.80;99.90
21830;DHT22;11077;50.264;6.798;2023-07-22T09:06:29;17.70;99.90
21830;DHT22;11077;50.264;6.798;2023-07-22T09:09:03;17.70;99.90
21830;DHT22;11077;50.264;6.798;2023-07-22T09:11:34;17.90;99.90
21830;DHT22;11077;50.264;6.798;2023-07-22T09:14:03;18.00;99.90
21830;DHT22;11077;50.264;6.798;2023-07-22T09:16:31;18.30;99.90
21830;DHT22;11077;50.264;6.798;2023-07-22T09:18:59;18.60;99.90
21830;DHT22;11077;50.264;6.798;2023-07-22T09:21:26;18.80;99.70
21830;DHT22;11077;50.264;6.798;2023-07-22T09:23:54;18.90;99.20
21830;DHT22;11077;50.264;6.798;2023-07-22T09:26:21;18.90;99.10
21830;DHT22;11077;50.264;6.798;2023-07-22T09:28:50;18.90;99.00
21830;DHT22;11077;50.264;6.798;2023-07-22T09:31:20;18.90;98.70
21830;DHT22;11077;50.264;6.798;2023-07-22T09:33:47;18.80;98.60
21830;DHT22;11077;50.264;6.798;2023-07-22T09:36:15;18.70;97.90
21830;DHT22;11077;50.264;6.798;2023-07-22T09:38:42;18.60;97.90
21830;DHT22;11077;50.264;6.798;2023-07-22T09:41:10;18.40;98.40
21830;DHT22;11077;50.264;6.798;2023-07-22T09:43:38;18.20;98.80
21830;DHT22;11077;50.264;6.798;2023-07-22T09:46:06;18.00;99.50
21830;DHT22;11077;50.264;6.798;2023-07-22T09:48:42;17.80;99.20
21830;DHT22;11077;50.264;6.798;2023-07-22T09:51:14;17.80;99.90
21830;DHT22;11077;50.264;6.798;2023-07-22T09:53:47;18.00;99.90
21830;DHT22;11077;50.264;6.798;2023-07-22T09:56:15;18.20;99.70
21830;DHT22;11077;50.264;6.798;2023-07-22T09:58:43;18.30;99.00
21830;DHT22;11077;50.264;6.798;2023-07-22T10:01:13;18.50;99.10
21830;DHT22;11077;50.264;6.798;2023-07-22T10:03:43;18.70;98.50
21830;DHT22;11077;50.264;6.798;2023-07-22T10:06:13;18.80;97.80
21830;DHT22;11077;50.264;6.798;2023-07-22T10:08:44;18.80;98.30
21830;DHT22;11077;50.264;6.798;2023-07-22T10:11:12;18.80;97.80
21830;DHT22;11077;50.264;6.798;2023-07-22T10:13:40;18.90;97.20
21830;DHT22;11077;50.264;6.798;2023-07-22T10:16:07;18.90;98.30
21830;DHT22;11077;50.264;6.798;2023-07-22T10:18:35;19.00;98.20
21830;DHT22;11077;50.264;6.798;2023-07-22T10:21:05;19.00;98.00
21830;DHT22;11077;50.264;6.798;2023-07-22T10:23:33;19.10;97.70
21830;DHT22;11077;50.264;6.798;2023-07-22T10:26:00;19.20;97.80
21830;DHT22;11077;50.264;6.798;2023-07-22T10:28:29;19.20;97.60
21830;DHT22;11077;50.264;6.798;2023-07-22T10:30:57;19.20;98.40
21830;DHT22;11077;50.264;6.798;2023-07-22T10:33:24;19.10;97.80
21830;DHT22;11077;50.264;6.798;2023-07-22T10:36:05;19.00;98.40
21830;DHT22;11077;50.264;6.798;2023-07-22T10:38:32;19.00;98.30
21830;DHT22;11077;50.264;6.798;2023-07-22T10:40:59;18.90;98.10
21830;DHT22;11077;50.264;6.798;2023-07-22T10:43:29;18.90;98.30
21830;DHT22;11077;50.264;6.798;2023-07-22T10:45:58;18.90;98.50
21830;DHT22;11077;50.264;6.798;2023-07-22T10:48:27;18.90;97.50
21830;DHT22;11077;50.264;6.798;2023-07-22T10:50:58;18.80;97.40
21830;DHT22;11077;50.264;6.798;2023-07-22T10:53:30;18.70;97.40
21830;DHT22;11077;50.264;6.798;2023-07-22T10:56:05;18.70;97.50
21830;DHT22;11077;50.264;6.798;2023-07-22T10:58:35;18.80;96.50
21830;DHT22;11077;50.264;6.798;2023-07-22T11:01:22;18.90;97.20
21830;DHT22;11077;50.264;6.798;2023-07-22T11:04:05;19.20;97.60
21830;DHT22;11077;50.264;6.798;2023-07-22T11:06:33;19.50;96.40
21830;DHT22;11077;50.264;6.798;2023-07-22T11:09:02;19.50;96.10
21830;DHT22;11077;50.264;6.798;2023-07-22T11:11:36;19.70;96.60
21830;DHT22;11077;50.264;6.798;2023-07-22T11:14:14;19.90;96.50
21830;DHT22;11077;50.264;6.798;2023-07-22T11:16:42;20.00;97.40
21830;DHT22;11077;50.264;6.798;2023-07-22T11:19:10;20.00;97.80
21830;DHT22;11077;50.264;6.798;2023-07-22T11:21:37;20.00;98.10
21830;DHT22;11077;50.264;6.798;2023-07-22T11:24:06;20.00;98.30
21830;DHT22;11077;50.264;6.798;2023-07-22T11:26:34;20.10;98.30
21830;DHT22;11077;50.264;6.798;2023-07-22T11:29:03;20.10;98.70
21830;DHT22;11077;50.264;6.798;2023-07-22T11:31:31;20.10;99.10
21830;DHT22;11077;50.264;6.798;2023-07-22T11:33:58;20.10;99.00
21830;DHT22;11077;50.264;6.798;2023-07-22T11:36:26;20.10;98.70
21830;DHT22;11077;50.264;6.798;2023-07-22T11:38:53;20.10;98.10
21830;DHT22;11077;50.264;6.798;2023-07-22T11:41:24;20.10;98.60
21830;DHT22;11077;50.264;6.798;2023-07-22T11:43:51;20.10;98.70
21830;DHT22;11077;50.264;6.798;2023-07-22T11:46:19;20.10;98.10
21830;DHT22;11077;50.264;6.798;2023-07-22T11:48:50;20.00;98.10
21830;DHT22;11077;50.264;6.798;2023-07-22T11:51:19;20.00;98.20
21830;DHT22;11077;50.264;6.798;2023-07-22T11:53:47;20.00;99.20
21830;DHT22;11077;50.264;6.798;2023-07-22T11:56:25;20.10;98.10
21830;DHT22;11077;50.264;6.798;2023-07-22T11:58:53;20.00;97.50
21830;DHT22;11077;50.264;6.798;2023-07-22T12:01:20;19.80;98.20
21830;DHT22;11077;50.264;6.798;2023-07-22T12:03:48;19.90;97.90
21830;DHT22;11077;50.264;6.798;2023-07-22T12:06:16;19.90;98.10
21830;DHT22;11077;50.264;6.798;2023-07-22T12:08:44;20.00;97.80
21830;DHT22;11077;50.264;6.798;2023-07-22T12:11:18;20.20;98.80
21830;DHT22;11077;50.264;6.798;2023-07-22T12:13:47;20.40;97.70
21830;DHT22;11077;50.264;6.798;2023-07-22T12:16:21;20.50;98.20
21830;DHT22;11077;50.264;6.798;2023-07-22T12:18:54;20.60;98.10
21830;DHT22;11077;50.264;6.798;2023-07-22T12:21:21;20.70;99.00
21830;DHT22;11077;50.264;6.798;2023-07-22T12:23:48;20.90;98.70
21830;DHT22;11077;50.264;6.798;2023-07-22T12:26:15;21.00;98.20
21830;DHT22;11077;50.264;6.798;2023-07-22T12:28:43;21.00;98.00
21830;DHT22;11077;50.264;6.798;2023-07-22T12:31:11;21.00;98.20
21830;DHT22;11077;50.264;6.798;2023-07-22T12:33:39;21.00;99.20
21830;DHT22;11077;50.264;6.798;2023-07-22T12:36:06;21.30;98.00
21830;DHT22;11077;50.264;6.798;2023-07-22T12:38:34;21.30;97.80
21830;DHT22;11077;50.264;6.798;2023-07-22T12:41:01;21.40;97.70
21830;DHT22;11077;50.264;6.798;2023-07-22T12:43:29;21.50;97.70
21830;DHT22;11077;50.264;6.798;2023-07-22T12:45:56;21.60;97.80
21830;DHT22;11077;50.264;6.798;2023-07-22T12:48:25;21.70;98.00
21830;DHT22;11077;50.264;6.798;2023-07-22T12:50:52;21.90;97.80
21830;DHT22;11077;50.264;6.798;2023-07-22T12:53:19;21.80;96.90
21830;DHT22;11077;50.264;6.798;2023-07-22T12:55:46;21.90;96.90
21830;DHT22;11077;50.264;6.798;2023-07-22T12:58:14;21.80;97.30
21830;DHT22;11077;50.264;6.798;2023-07-22T13:00:41;21.80;97.20
21830;DHT22;11077;50.264;6.798;2023-07-22T13:03:08;21.80;97.50
21830;DHT22;11077;50.264;6.798;2023-07-22T13:05:37;21.70;97.30
21830;DHT22;11077;50.264;6.798;2023-07-22T13:08:08;21.70;97.80
21830;DHT22;11077;50.264;6.798;2023-07-22T13:10:39;21.80;97.50
21830;DHT22;11077;50.264;6.798;2023-07-22T13:13:10;21.90;97.50
21830;DHT22;11077;50.264;6.798;2023-07-22T13:15:38;22.00;97.40
21830;DHT22;11077;50.264;6.798;2023-07-22T13:18:05;22.10;97.10
21830;DHT22;11077;50.264;6.798;2023-07-22T13:20:33;22.00;96.60
21830;DHT22;11077;50.264;6.798;2023-07-22T13:23:02;21.80;97.20
21830;DHT22;11077;50.264;6.798;2023-07-22T13:25:29;21.70;97.10
21830;DHT22;11077;50.264;6.798;2023-07-22T13:27:56;21.60;97.30
21830;DHT22;11077;50.264;6.798;2023-07-22T13:30:23;21.50;97.30
21830;DHT22;11077;50.264;6.798;2023-07-22T13:32:50;21.50;98.00
21830;DHT22;11077;50.264;6.798;2023-07-22T13:35:18;21.50;97.90
21830;DHT22;11077;50.264;6.798;2023-07-22T13:37:45;21.50;97.50
21830;DHT22;11077;50.264;6.798;2023-07-22T13:40:14;21.40;97.70
21830;DHT22;11077;50.264;6.798;2023-07-22T13:42:42;21.30;97.40
21830;DHT22;11077;50.264;6.798;2023-07-22T13:45:09;21.30;97.70
21830;DHT22;11077;50.264;6.798;2023-07-22T13:47:36;21.40;97.70
21830;DHT22;11077;50.264;6.798;2023-07-22T13:50:04;21.40;97.40
21830;DHT22;11077;50.264;6.798;2023-07-22T13:52:31;21.30;97.40
21830;DHT22;11077;50.264;6.798;2023-07-22T13:54:58;21.20;97.60
21830;DHT22;11077;50.264;6.798;2023-07-22T13:57:28;21.20;98.20
21830;DHT22;11077;50.264;6.798;2023-07-22T13:59:55;21.30;97.20
21830;DHT22;11077;50.264;6.798;2023-07-22T14:02:22;21.40;97.30
21830;DHT22;11077;50.264;6.798;2023-07-22T14:04:49;21.40;96.90
21830;DHT22;11077;50.264;6.798;2023-07-22T14:07:16;21.30;96.70
21830;DHT22;11077;50.264;6.798;2023-07-22T14:09:44;21.30;96.80
21830;DHT22;11077;50.264;6.798;2023-07-22T14:12:11;21.20;97.10
21830;DHT22;11077;50.264;6.798;2023-07-22T14:14:40;21.20;97.50
21830;DHT22;11077;50.264;6.798;2023-07-22T14:17:07;21.20;97.10
21830;DHT22;11077;50.264;6.798;2023-07-22T14:19:34;21.30;97.10
21830;DHT22;11077;50.264;6.798;2023-07-22T14:22:01;21.40;96.70
21830;DHT22;11077;50.264;6.798;2023-07-22T14:24:29;21.40;96.90
21830;DHT22;11077;50.264;6.798;2023-07-22T14:26:57;21.30;96.80
21830;DHT22;11077;50.264;6.798;2023-07-22T14:29:24;21.30;96.60
21830;DHT22;11077;50.264;6.798;2023-07-22T14:31:55;21.10;96.70
21830;DHT22;11077;50.264;6.798;2023-07-22T14:34:23;21.00;97.50
21830;DHT22;11077;50.264;6.798;2023-07-22T14:36:50;21.10;96.90
21830;DHT22;11077;50.264;6.798;2023-07-22T14:39:18;21.10;96.70
21830;DHT22;11077;50.264;6.798;2023-07-22T14:41:45;21.10;96.60
21830;DHT22;11077;50.264;6.798;2023-07-22T14:44:12;21.10;96.80
21830;DHT22;11077;50.264;6.798;2023-07-22T14:46:39;21.20;97.00
21830;DHT22;11077;50.264;6.798;2023-07-22T14:49:08;21.10;97.50
21830;DHT22;11077;50.264;6.798;2023-07-22T14:51:35;21.00;97.50
21830;DHT22;11077;50.264;6.798;2023-07-22T14:54:03;21.10;97.60
21830;DHT22;11077;50.264;6.798;2023-07-22T14:56:30;21.20;97.40
21830;DHT22;11077;50.264;6.798;2023-07-22T14:58:58;21.20;97.30
21830;DHT22;11077;50.264;6.798;2023-07-22T15:01:25;21.30;97.30
21830;DHT22;11077;50.264;6.798;2023-07-22T15:03:52;21.40;97.50
21830;DHT22;11077;50.264;6.798;2023-07-22T15:06:22;21.40;96.60
21830;DHT22;11077;50.264;6.798;2023-07-22T15:08:51;21.30;96.60
21830;DHT22;11077;50.264;6.798;2023-07-22T15:11:18;21.20;97.10
21830;DHT22;11077;50.264;6.798;2023-07-22T15:13:45;21.20;97.60
21830;DHT22;11077;50.264;6.798;2023-07-22T15:16:12;21.30;97.70
21830;DHT22;11077;50.264;6.798;2023-07-22T15:18:41;21.40;97.60
21830;DHT22;11077;50.264;6.798;2023-07-22T15:21:08;21.50;97.20
21830;DHT22;11077;50.264;6.798;2023-07-22T15:23:37;21.60;98.00
21830;DHT22;11077;50.264;6.798;2023-07-22T15:26:04;21.70;97.40
21830;DHT22;11077;50.264;6.798;2023-07-22T15:28:31;21.80;97.50
21830;DHT22;11077;50.264;6.798;2023-07-22T15:30:58;21.90;97.30
21830;DHT22;11077;50.264;6.798;2023-07-22T15:33:26;21.80;96.50
21830;DHT22;11077;50.264;6.798;2023-07-22T15:35:53;21.70;96.90
21830;DHT22;11077;50.264;6.798;2023-07-22T15:38:21;21.60;97.50
21830;DHT22;11077;50.264;6.798;2023-07-22T15:40:50;21.50;97.60
21830;DHT22;11077;50.264;6.798;2023-07-22T15:43:17;21.50;96.90
21830;DHT22;11077;50.264;6.798;2023-07-22T15:45:45;21.40;97.20
21830;DHT22;11077;50.264;6.798;2023-07-22T15:48:12;21.30;97.20